createdAt,value
2018-09-23T00:00:32.819Z,3.37
2018-09-23T00:03:37.087Z,3.03
2018-09-23T00:06:41.243Z,2.50
2018-09-23T00:09:45.560Z,3.93
2018-09-23T00:12:49.862Z,2.00
2018-09-23T00:15:54.276Z,3.23
2018-09-23T00:18:58.491Z,2.70
2018-09-23T00:22:02.634Z,2.60
2018-09-23T00:25:06.959Z,2.70
2018-09-23T00:28:11.305Z,2.30
2018-09-23T00:31:15.606Z,1.93
2018-09-23T00:34:19.840Z,3.80
2018-09-23T00:37:24.084Z,3.07
2018-09-23T00:40:28.303Z,2.20
2018-09-23T00:43:32.691Z,10.30
2018-09-23T00:46:37.137Z,3.00
2018-09-23T00:49:41.507Z,2.07
2018-09-23T00:52:45.769Z,5.00
2018-09-23T00:55:49.965Z,2.30
2018-09-23T00:58:54.173Z,2.30
2018-09-23T01:01:58.598Z,1.70
2018-09-23T01:05:03.070Z,1.83
2018-09-23T01:08:07.476Z,2.10
2018-09-23T01:11:11.785Z,3.03
2018-09-23T01:14:16.149Z,2.20
2018-09-23T01:17:20.551Z,3.17
2018-09-23T01:20:25.092Z,3.77
2018-09-23T01:23:29.384Z,1.70
2018-09-23T01:26:33.775Z,2.77
2018-09-23T01:29:37.907Z,1.83
2018-09-23T01:32:42.035Z,3.03
2018-09-23T01:35:46.378Z,2.47
2018-09-23T01:38:50.804Z,2.37
2018-09-23T01:41:55.015Z,4.97
2018-09-23T01:44:59.477Z,2.57
2018-09-23T01:48:03.778Z,2.53
2018-09-23T01:51:07.702Z,2.60
2018-09-23T01:54:12.026Z,1.50
2018-09-23T01:57:16.351Z,2.30
2018-09-23T02:00:20.657Z,2.13
2018-09-23T02:03:24.991Z,2.60
2018-09-23T02:06:29.320Z,2.40
2018-09-23T02:09:33.647Z,4.60
2018-09-23T02:12:37.820Z,2.00
2018-09-23T02:15:42.330Z,2.30
2018-09-23T02:18:46.596Z,2.73
2018-09-23T02:21:50.796Z,4.20
2018-09-23T02:24:55.079Z,3.53
2018-09-23T02:27:59.365Z,2.87
2018-09-23T02:31:03.579Z,2.10
2018-09-23T02:34:07.991Z,2.67
2018-09-23T02:37:12.188Z,3.20
2018-09-23T02:40:16.292Z,2.30
2018-09-23T02:43:20.425Z,1.60
2018-09-23T02:46:24.669Z,1.73
2018-09-23T02:49:29.005Z,2.60
2018-09-23T02:52:33.431Z,3.03
2018-09-23T02:55:37.871Z,2.30
2018-09-23T02:58:41.963Z,3.10
2018-09-23T03:01:46.145Z,2.50
2018-09-23T03:04:50.501Z,7.70
2018-09-23T03:07:54.913Z,2.97
2018-09-23T03:10:59.060Z,3.00
2018-09-23T03:14:03.243Z,2.87
2018-09-23T03:17:07.544Z,3.37
2018-09-23T03:20:11.676Z,4.17
2018-09-23T03:23:16.031Z,3.60
2018-09-23T03:26:20.358Z,4.93
2018-09-23T03:29:24.658Z,4.83
2018-09-23T03:32:28.984Z,5.43
2018-09-23T03:35:33.309Z,5.60
2018-09-23T03:38:37.747Z,6.00
2018-09-23T03:41:41.957Z,5.37
2018-09-23T03:44:47.150Z,6.03
2018-09-23T03:47:51.541Z,6.10
2018-09-23T03:50:55.934Z,7.03
2018-09-23T03:54:00.523Z,6.27
2018-09-23T03:57:04.678Z,9.73
2018-09-23T04:00:08.847Z,6.60
2018-09-23T04:03:13.190Z,7.90
2018-09-23T04:06:17.479Z,7.70
2018-09-23T04:09:22.154Z,8.10
2018-09-23T04:12:26.384Z,6.60
2018-09-23T04:15:30.716Z,5.53
2018-09-23T04:18:35.310Z,6.90
2018-09-23T04:21:39.694Z,7.23
2018-09-23T04:24:43.914Z,8.10
2018-09-23T04:27:48.648Z,8.60
2018-09-23T04:30:53.075Z,6.93
2018-09-23T04:33:57.411Z,8.70
2018-09-23T04:37:01.710Z,9.63
2018-09-23T04:40:06.001Z,6.97
2018-09-23T04:43:11.155Z,5.90
2018-09-23T04:46:15.532Z,5.93
2018-09-23T04:49:19.857Z,6.53
2018-09-23T04:52:24.144Z,7.17
2018-09-23T04:55:28.512Z,12.40
2018-09-23T04:58:32.797Z,7.07
2018-09-23T05:01:37.117Z,7.23
2018-09-23T05:04:41.524Z,6.50
2018-09-23T05:07:45.982Z,7.00
2018-09-23T05:10:50.293Z,6.13
2018-09-23T05:13:54.721Z,7.13
2018-09-23T05:16:59.073Z,6.60
2018-09-23T05:20:03.510Z,6.90
2018-09-23T05:23:07.949Z,6.90
2018-09-23T05:26:12.309Z,7.00
2018-09-23T05:29:16.660Z,7.03
2018-09-23T05:32:20.982Z,8.10
2018-09-23T05:35:25.193Z,7.30
2018-09-23T05:38:29.453Z,8.20
2018-09-23T05:41:33.571Z,5.53
2018-09-23T05:44:37.913Z,7.20
2018-09-23T05:47:42.242Z,6.47
2018-09-23T05:50:46.578Z,7.03
2018-09-23T05:53:50.865Z,7.30
2018-09-23T05:56:55.206Z,6.03
2018-09-23T06:00:00.113Z,6.53
2018-09-23T06:03:04.249Z,6.17
2018-09-23T06:06:08.729Z,6.00
2018-09-23T06:09:13.038Z,6.03
2018-09-23T06:12:17.406Z,6.70
2018-09-23T06:15:21.651Z,6.30
2018-09-23T06:18:26.042Z,6.27
2018-09-23T06:21:30.358Z,14.33
2018-09-23T06:24:34.621Z,6.57
2018-09-23T06:27:38.811Z,6.67
2018-09-23T06:30:43.068Z,6.23
2018-09-23T06:33:47.261Z,6.97
2018-09-23T06:36:51.640Z,7.70
2018-09-23T06:39:55.904Z,5.70
2018-09-23T06:43:00.130Z,7.03
2018-09-23T06:46:04.362Z,6.73
2018-09-23T06:49:08.575Z,6.77
2018-09-23T06:52:12.901Z,6.50
2018-09-23T06:55:17.207Z,7.87
2018-09-23T06:58:21.335Z,6.37
2018-09-23T07:01:25.655Z,6.80
2018-09-23T07:04:29.922Z,6.87
2018-09-23T07:07:34.198Z,5.70
2018-09-23T07:10:38.779Z,7.53
2018-09-23T07:13:43.090Z,6.00
2018-09-23T07:16:47.608Z,6.27
2018-09-23T07:19:51.834Z,6.60
2018-09-23T07:22:56.099Z,6.43
2018-09-23T07:26:00.352Z,6.40
2018-09-23T07:29:04.708Z,8.30
2018-09-23T07:32:09.153Z,5.30
2018-09-23T07:35:13.437Z,5.03
2018-09-23T07:38:17.701Z,5.30
2018-09-23T07:41:21.842Z,6.67
2018-09-23T07:44:26.167Z,5.10
2018-09-23T07:47:30.474Z,5.30
2018-09-23T07:50:34.779Z,5.40
2018-09-23T07:53:39.030Z,5.60
2018-09-23T07:56:43.178Z,5.50
2018-09-23T07:59:48.051Z,4.93
2018-09-23T08:02:52.292Z,4.40
2018-09-23T08:05:56.455Z,4.57
2018-09-23T08:09:00.649Z,4.30
2018-09-23T08:12:05.061Z,4.10
2018-09-23T08:15:09.118Z,6.00
2018-09-23T08:18:13.308Z,4.77
2018-09-23T08:21:17.696Z,4.47
2018-09-23T08:24:21.974Z,4.40
2018-09-23T08:27:26.317Z,4.23
2018-09-23T08:30:30.647Z,4.37
2018-09-23T08:33:35.117Z,4.13
2018-09-23T08:36:39.395Z,4.77
2018-09-23T08:39:43.808Z,4.23
2018-09-23T08:42:48.315Z,4.80
2018-09-23T08:45:52.853Z,5.53
2018-09-23T08:48:57.283Z,4.50
2018-09-23T08:52:01.667Z,3.90
2018-09-23T08:55:05.843Z,4.87
2018-09-23T08:58:10.314Z,5.07
2018-09-23T09:01:14.818Z,5.50
2018-09-23T09:04:19.329Z,5.67
2018-09-23T09:07:24.600Z,5.10
2018-09-23T09:10:28.796Z,4.97
2018-09-23T09:13:33.334Z,4.97
2018-09-23T09:16:37.554Z,3.63
2018-09-23T09:19:41.871Z,4.13
2018-09-23T09:22:46.059Z,4.20
2018-09-23T09:25:50.235Z,5.53
2018-09-23T09:28:54.500Z,4.10
2018-09-23T09:31:58.712Z,4.80
2018-09-23T09:35:03.027Z,5.70
2018-09-23T09:38:07.345Z,4.87
2018-09-23T09:41:11.659Z,5.03
2018-09-23T09:44:16.181Z,4.47
2018-09-23T09:47:20.608Z,4.13
2018-09-23T09:50:25.599Z,3.90
2018-09-23T09:53:29.795Z,4.73
2018-09-23T09:56:34.149Z,4.03
2018-09-23T09:59:38.304Z,4.63
2018-09-23T10:02:42.514Z,3.97
2018-09-23T10:05:47.003Z,6.10
2018-09-23T10:08:51.308Z,3.73
2018-09-23T10:11:55.844Z,4.47
2018-09-23T10:15:00.326Z,3.50
2018-09-23T10:18:04.614Z,3.87
2018-09-23T10:21:08.779Z,4.20
2018-09-23T10:24:13.009Z,4.70
2018-09-23T10:27:17.302Z,2.87
2018-09-23T10:30:21.765Z,3.27
2018-09-23T10:33:25.881Z,3.30
2018-09-23T10:36:30.090Z,3.70
2018-09-23T10:39:34.414Z,8.10
2018-09-23T10:42:38.730Z,3.10
2018-09-23T10:45:43.290Z,3.67
2018-09-23T10:48:47.615Z,2.47
2018-09-23T10:51:52.070Z,3.10
2018-09-23T10:54:56.322Z,4.07
2018-09-23T10:58:00.698Z,2.53
2018-09-23T11:01:05.296Z,3.40
2018-09-23T11:04:10.192Z,3.10
2018-09-23T11:07:15.204Z,2.30
2018-09-23T11:10:19.479Z,2.37
2018-09-23T11:13:23.752Z,3.10
2018-09-23T11:16:27.954Z,3.20
2018-09-23T11:19:32.336Z,4.23
2018-09-23T11:22:36.735Z,2.55
2018-09-23T11:25:41.082Z,2.15
2018-09-23T11:28:45.498Z,2.22
2018-09-23T11:31:49.917Z,3.50
2018-09-23T11:34:54.299Z,5.28
2018-09-23T11:37:58.498Z,3.47
2018-09-23T11:41:02.569Z,2.43
2018-09-23T11:44:06.947Z,2.10
2018-09-23T11:47:11.414Z,3.63
2018-09-23T11:50:15.766Z,2.70
2018-09-23T11:53:20.015Z,2.37
2018-09-23T11:56:24.469Z,2.10
2018-09-23T11:59:28.675Z,2.40
2018-09-23T12:02:33.163Z,3.53
2018-09-23T12:05:37.724Z,3.30
2018-09-23T12:08:41.993Z,2.27
2018-09-23T12:11:46.557Z,2.37
2018-09-23T12:14:50.937Z,2.60
2018-09-23T12:17:55.198Z,2.10
2018-09-23T12:20:59.394Z,2.50
2018-09-23T12:24:03.636Z,2.25
2018-09-23T12:27:07.987Z,2.30
2018-09-23T12:30:12.302Z,2.55
2018-09-23T12:33:16.635Z,2.72
2018-09-23T12:36:20.846Z,5.22
2018-09-23T12:39:25.068Z,2.45
2018-09-23T12:42:29.489Z,2.72
2018-09-23T12:45:33.542Z,2.58
2018-09-23T12:48:37.779Z,1.90
2018-09-23T12:51:42.237Z,3.27
2018-09-23T12:54:46.386Z,2.67
2018-09-23T12:57:50.749Z,2.33
2018-09-23T13:00:55.146Z,1.87
2018-09-23T13:03:59.384Z,2.63
2018-09-23T13:07:03.665Z,2.37
2018-09-23T13:10:08.083Z,2.20
2018-09-23T13:13:12.385Z,1.90
2018-09-23T13:16:16.831Z,2.70
2018-09-23T13:19:21.036Z,2.50
2018-09-23T13:22:25.547Z,2.00
2018-09-23T13:25:29.835Z,3.47
2018-09-23T13:28:34.182Z,2.90
2018-09-23T13:31:38.643Z,2.30
2018-09-23T13:34:43.051Z,3.00
2018-09-23T13:37:47.364Z,3.20
2018-09-23T13:40:51.692Z,3.00
2018-09-23T13:43:56.099Z,2.53
2018-09-23T13:47:00.443Z,2.33
2018-09-23T13:50:05.007Z,3.40
2018-09-23T13:53:09.209Z,2.57
2018-09-23T13:56:13.536Z,3.23
2018-09-23T13:59:17.729Z,9.90
2018-09-23T14:02:22.187Z,2.40
2018-09-23T14:05:26.588Z,3.40
2018-09-23T14:08:30.885Z,3.50
2018-09-23T14:11:35.382Z,3.67
2018-09-23T14:14:39.711Z,3.80
2018-09-23T14:17:44.229Z,3.40
2018-09-23T14:20:48.715Z,4.60
2018-09-23T14:23:52.868Z,3.83
2018-09-23T14:26:57.265Z,3.93
2018-09-23T14:30:01.799Z,4.23
2018-09-23T14:33:06.067Z,4.10
2018-09-23T14:36:10.490Z,4.20
2018-09-23T14:39:14.982Z,3.90
2018-09-23T14:42:19.097Z,4.53
2018-09-23T14:45:23.375Z,4.63
2018-09-23T14:48:27.839Z,5.43
2018-09-23T14:51:32.176Z,4.37
2018-09-23T14:54:36.632Z,8.40
2018-09-23T14:57:40.941Z,4.80
2018-09-23T15:00:45.421Z,4.40
2018-09-23T15:03:49.851Z,4.30
2018-09-23T15:06:54.210Z,4.73
2018-09-23T15:09:58.603Z,4.70
2018-09-23T15:13:02.876Z,4.80
2018-09-23T15:16:07.229Z,3.93
2018-09-23T15:19:11.519Z,4.03
2018-09-23T15:22:15.863Z,4.50
2018-09-23T15:25:20.164Z,4.83
2018-09-23T15:28:24.502Z,5.03
2018-09-23T15:31:28.927Z,4.40
2018-09-23T15:34:33.161Z,4.23
2018-09-23T15:37:37.642Z,4.37
2018-09-23T15:40:41.943Z,4.60
2018-09-23T15:43:46.424Z,5.90
2018-09-23T15:46:50.517Z,4.97
2018-09-23T15:49:54.967Z,6.43
2018-09-23T15:52:59.304Z,4.23
2018-09-23T15:56:03.920Z,3.63
2018-09-23T15:59:08.202Z,4.43
2018-09-23T16:02:12.452Z,4.13
2018-09-23T16:05:16.817Z,3.70
2018-09-23T16:08:21.280Z,4.10
2018-09-23T16:11:25.627Z,4.93
2018-09-23T16:14:30.111Z,3.90
2018-09-23T16:17:34.454Z,4.43
2018-09-23T16:20:39.000Z,6.47
2018-09-23T16:23:43.482Z,4.20
2018-09-23T16:26:48.036Z,4.20
2018-09-23T16:29:59.041Z,3.63
2018-09-23T16:33:03.218Z,3.83
2018-09-23T16:36:06.978Z,4.17
2018-09-23T16:39:11.769Z,3.60
2018-09-23T16:42:16.192Z,4.23
2018-09-23T16:45:20.490Z,5.63
2018-09-23T16:48:24.811Z,4.47
2018-09-23T16:51:29.154Z,5.07
2018-09-23T16:54:33.475Z,4.10
2018-09-23T16:57:37.983Z,6.40
2018-09-23T17:00:42.290Z,4.90
2018-09-23T17:03:46.633Z,5.10
2018-09-23T17:06:57.074Z,7.83
2018-09-23T17:10:01.274Z,8.37
2018-09-23T17:13:05.664Z,8.23
2018-09-23T17:16:09.941Z,6.07
2018-09-23T17:19:14.275Z,7.00
2018-09-23T17:22:18.625Z,6.97
2018-09-23T17:25:22.897Z,8.67
2018-09-23T17:28:27.249Z,7.30
2018-09-23T17:31:31.494Z,6.77
2018-09-23T17:34:35.802Z,6.47
2018-09-23T17:37:40.152Z,7.73
2018-09-23T17:40:44.671Z,7.27
2018-09-23T17:43:48.980Z,8.10
2018-09-23T17:46:53.366Z,7.50
2018-09-23T17:49:57.647Z,7.97
2018-09-23T17:53:02.128Z,6.20
2018-09-23T17:56:06.740Z,6.47
2018-09-23T17:59:11.028Z,9.47
2018-09-23T18:02:15.390Z,7.10
2018-09-23T18:05:19.790Z,9.50
2018-09-23T18:08:24.178Z,6.63
2018-09-23T18:11:28.478Z,11.97
2018-09-23T18:14:32.749Z,5.93
2018-09-23T18:17:36.924Z,9.80
2018-09-23T18:20:41.104Z,9.33
2018-09-23T18:23:45.450Z,8.87
2018-09-23T18:26:49.722Z,7.20
2018-09-23T18:29:54.123Z,12.53
2018-09-23T18:32:58.386Z,7.67
2018-09-23T18:36:02.723Z,6.90
2018-09-23T18:39:08.675Z,8.70
2018-09-23T18:42:13.034Z,6.90
2018-09-23T18:45:17.317Z,5.60
2018-09-23T18:48:21.598Z,5.83
2018-09-23T18:51:25.876Z,5.90
2018-09-23T18:54:35.305Z,7.00
2018-09-23T18:57:39.677Z,7.00
2018-09-23T19:00:43.844Z,6.57
2018-09-23T19:03:48.125Z,8.40
2018-09-23T19:06:52.492Z,7.20
2018-09-23T19:09:57.743Z,5.07
2018-09-23T19:13:07.270Z,5.53
2018-09-23T19:16:16.844Z,6.67
2018-09-23T19:19:25.433Z,7.63
2018-09-23T19:22:34.948Z,5.60
2018-09-23T19:25:39.273Z,6.70
2018-09-23T19:28:43.569Z,6.40
2018-09-23T19:31:48.582Z,6.63
2018-09-23T19:34:53.332Z,6.13
2018-09-23T19:37:57.797Z,6.93
2018-09-23T19:41:02.099Z,8.30
2018-09-23T19:44:07.204Z,7.83
2018-09-23T19:47:11.502Z,7.90
2018-09-23T19:50:15.953Z,6.77
2018-09-23T19:53:20.348Z,5.77
2018-09-23T19:56:24.734Z,6.17
2018-09-23T19:59:29.216Z,6.40
2018-09-23T20:02:33.327Z,6.07
2018-09-23T20:05:37.339Z,5.60
2018-09-23T20:08:41.451Z,7.53
2018-09-23T20:11:45.825Z,6.00
2018-09-23T20:14:50.376Z,5.87
2018-09-23T20:17:54.898Z,6.03
2018-09-23T20:20:59.303Z,10.43
2018-09-23T20:24:03.613Z,7.17
2018-09-23T20:27:07.965Z,7.10
2018-09-23T20:30:12.420Z,7.80
2018-09-23T20:33:16.527Z,6.77
2018-09-23T20:36:20.477Z,6.17
2018-09-23T20:39:24.904Z,8.30
2018-09-23T20:42:29.307Z,8.40
2018-09-23T20:45:34.622Z,7.80
2018-09-23T20:48:39.077Z,6.93
2018-09-23T20:51:44.385Z,8.73
2018-09-23T20:54:48.803Z,5.73
2018-09-23T20:57:52.797Z,6.20
2018-09-23T21:00:56.676Z,6.80
2018-09-23T21:04:01.189Z,6.20
2018-09-23T21:07:05.639Z,6.13
2018-09-23T21:10:09.759Z,6.87
2018-09-23T21:13:14.141Z,8.07
2018-09-23T21:16:18.499Z,6.60
2018-09-23T21:19:22.973Z,7.60
2018-09-23T21:22:27.163Z,6.10
2018-09-23T21:25:31.451Z,9.57
2018-09-23T21:28:35.871Z,6.67
2018-09-23T21:31:40.654Z,7.30
2018-09-23T21:34:45.010Z,10.20
2018-09-23T21:37:49.851Z,6.17
2018-09-23T21:40:54.904Z,8.77
2018-09-23T21:43:59.016Z,6.97
2018-09-23T21:47:02.988Z,7.20
2018-09-23T21:50:07.307Z,7.27
2018-09-23T21:53:11.808Z,6.63
2018-09-23T21:56:16.289Z,6.93
2018-09-23T21:59:20.825Z,7.70
2018-09-23T22:02:25.183Z,8.20
2018-09-23T22:05:29.652Z,8.83
2018-09-23T22:08:33.888Z,7.60
2018-09-23T22:11:38.219Z,9.80
2018-09-23T22:14:42.653Z,7.03
2018-09-23T22:17:46.981Z,6.80
2018-09-23T22:20:51.306Z,8.57
2018-09-23T22:23:55.695Z,6.27
2018-09-23T22:27:00.327Z,6.60
2018-09-23T22:30:04.746Z,6.73
2018-09-23T22:33:08.981Z,6.57
2018-09-23T22:36:13.361Z,10.40
2018-09-23T22:39:17.881Z,6.73
2018-09-23T22:42:22.300Z,7.43
2018-09-23T22:45:26.839Z,11.13
2018-09-23T22:48:31.293Z,6.23
2018-09-23T22:51:35.662Z,10.10
2018-09-23T22:54:40.156Z,7.30
2018-09-23T22:57:44.430Z,4.70
2018-09-23T23:00:48.780Z,5.70
2018-09-23T23:03:53.065Z,2.77
2018-09-23T23:06:57.453Z,1.33
2018-09-23T23:10:01.591Z,2.67
2018-09-23T23:13:06.299Z,1.60
2018-09-23T23:16:10.617Z,4.60
2018-09-23T23:19:14.885Z,14.90
2018-09-23T23:22:19.194Z,3.50
2018-09-23T23:25:23.586Z,1.50
2018-09-23T23:28:27.921Z,1.30
2018-09-23T23:31:32.315Z,1.00
2018-09-23T23:34:36.734Z,1.40
2018-09-23T23:37:41.459Z,0.73
2018-09-23T23:40:45.331Z,1.20
2018-09-23T23:43:50.118Z,0.53
2018-09-23T23:46:53.963Z,0.73
2018-09-23T23:49:58.202Z,0.70
2018-09-23T23:53:03.448Z,0.90
2018-09-23T23:56:07.800Z,0.40
2018-09-23T23:59:12.081Z,0.40
